sensor_id;sensor_type;location;lat;lon;timestamp;P1;durP1;ratioP1;P2;durP2;ratioP2
2602;SDS011;1311;47.966;7.958;2023-05-03T00:02:16;8.70;;;6.30;;
2602;SDS011;1311;47.966;7.958;2023-05-03T00:04:43;9.13;;;5.80;;
2602;SDS011;1311;47.966;7.958;2023-05-03T00:07:12;7.47;;;5.20;;
2602;SDS011;1311;47.966;7.958;2023-05-03T00:09:39;8.97;;;6.50;;
2602;SDS011;1311;47.966;7.958;2023-05-03T00:12:06;8.07;;;5.27;;
2602;SDS011;1311;47.966;7.958;2023-05-03T00:14:32;6.40;;;5.00;;
2602;SDS011;1311;47.966;7.958;2023-05-03T00:16:59;7.87;;;5.10;;
2602;SDS011;1311;47.966;7.958;2023-05-03T00:19:27;9.80;;;6.20;;
2602;SDS011;1311;47.966;7.958;2023-05-03T00:21:57;7.47;;;5.27;;
2602;SDS011;1311;47.966;7.958;2023-05-03T00:24:23;7.43;;;5.50;;
2602;SDS011;1311;47.966;7.958;2023-05-03T00:26:50;11.43;;;5.47;;
2602;SDS011;1311;47.966;7.958;2023-05-03T00:29:17;7.73;;;5.50;;
2602;SDS011;1311;47.966;7.958;2023-05-03T00:31:45;7.57;;;4.50;;
2602;SDS011;1311;47.966;7.958;2023-05-03T00:34:12;8.90;;;5.60;;
2602;SDS011;1311;47.966;7.958;2023-05-03T00:36:40;8.23;;;5.47;;
2602;SDS011;1311;47.966;7.958;2023-05-03T00:39:07;9.30;;;5.83;;
2602;SDS011;1311;47.966;7.958;2023-05-03T00:41:33;7.00;;;5.10;;
2602;SDS011;1311;47.966;7.958;2023-05-03T00:44:00;9.00;;;5.47;;
2602;SDS011;1311;47.966;7.958;2023-05-03T00:46:27;8.90;;;5.80;;
2602;SDS011;1311;47.966;7.958;2023-05-03T00:48:54;7.70;;;5.30;;
2602;SDS011;1311;47.966;7.958;2023-05-03T00:51:21;8.50;;;5.97;;
2602;SDS011;1311;47.966;7.958;2023-05-03T00:53:51;8.20;;;5.37;;
2602;SDS011;1311;47.966;7.958;2023-05-03T00:56:18;10.23;;;6.23;;
2602;SDS011;1311;47.966;7.958;2023-05-03T00:58:46;7.10;;;5.47;;
2602;SDS011;1311;47.966;7.958;2023-05-03T01:01:13;9.67;;;5.60;;
2602;SDS011;1311;47.966;7.958;2023-05-03T01:03:42;6.10;;;4.77;;
2602;SDS011;1311;47.966;7.958;2023-05-03T01:06:12;8.00;;;5.73;;
2602;SDS011;1311;47.966;7.958;2023-05-03T01:08:49;8.50;;;5.80;;
2602;SDS011;1311;47.966;7.958;2023-05-03T01:11:25;9.17;;;6.30;;
2602;SDS011;1311;47.966;7.958;2023-05-03T01:13:59;7.60;;;5.37;;
2602;SDS011;1311;47.966;7.958;2023-05-03T01:16:35;6.63;;;5.20;;
2602;SDS011;1311;47.966;7.958;2023-05-03T01:19:05;5.77;;;4.47;;
2602;SDS011;1311;47.966;7.958;2023-05-03T01:21:44;7.17;;;4.97;;
2602;SDS011;1311;47.966;7.958;2023-05-03T01:24:21;8.03;;;5.90;;
2602;SDS011;1311;47.966;7.958;2023-05-03T01:26:52;7.40;;;5.07;;
2602;SDS011;1311;47.966;7.958;2023-05-03T01:29:19;5.30;;;4.73;;
2602;SDS011;1311;47.966;7.958;2023-05-03T01:31:47;9.20;;;5.50;;
2602;SDS011;1311;47.966;7.958;2023-05-03T01:34:21;6.93;;;5.30;;
2602;SDS011;1311;47.966;7.958;2023-05-03T01:36:56;8.50;;;5.80;;
2602;SDS011;1311;47.966;7.958;2023-05-03T01:39:25;9.60;;;5.63;;
2602;SDS011;1311;47.966;7.958;2023-05-03T01:41:57;9.80;;;5.67;;
2602;SDS011;1311;47.966;7.958;2023-05-03T01:44:26;6.13;;;4.33;;
2602;SDS011;1311;47.966;7.958;2023-05-03T01:46:54;4.73;;;3.80;;
2602;SDS011;1311;47.966;7.958;2023-05-03T01:49:22;6.80;;;4.80;;
2602;SDS011;1311;47.966;7.958;2023-05-03T01:51:49;6.80;;;4.37;;
2602;SDS011;1311;47.966;7.958;2023-05-03T01:54:16;6.07;;;3.73;;
2602;SDS011;1311;47.966;7.958;2023-05-03T01:56:43;6.87;;;4.60;;
2602;SDS011;1311;47.966;7.958;2023-05-03T01:59:12;5.27;;;4.17;;
2602;SDS011;1311;47.966;7.958;2023-05-03T02:01:38;7.27;;;4.37;;
2602;SDS011;1311;47.966;7.958;2023-05-03T02:04:05;8.07;;;5.30;;
2602;SDS011;1311;47.966;7.958;2023-05-03T02:06:32;6.67;;;4.30;;
2602;SDS011;1311;47.966;7.958;2023-05-03T02:08:59;8.60;;;5.10;;
2602;SDS011;1311;47.966;7.958;2023-05-03T02:11:25;5.80;;;4.00;;
2602;SDS011;1311;47.966;7.958;2023-05-03T02:13:52;6.53;;;5.13;;
2602;SDS011;1311;47.966;7.958;2023-05-03T02:16:20;9.57;;;5.43;;
2602;SDS011;1311;47.966;7.958;2023-05-03T02:18:47;6.50;;;3.77;;
2602;SDS011;1311;47.966;7.958;2023-05-03T02:21:15;6.43;;;4.57;;
2602;SDS011;1311;47.966;7.958;2023-05-03T02:23:42;5.00;;;3.60;;
2602;SDS011;1311;47.966;7.958;2023-05-03T02:26:09;6.53;;;4.63;;
2602;SDS011;1311;47.966;7.958;2023-05-03T02:28:35;6.70;;;4.17;;
2602;SDS011;1311;47.966;7.958;2023-05-03T02:31:02;8.10;;;4.93;;
2602;SDS011;1311;47.966;7.958;2023-05-03T02:33:31;7.93;;;5.00;;
2602;SDS011;1311;47.966;7.958;2023-05-03T02:35:58;8.43;;;4.33;;
2602;SDS011;1311;47.966;7.958;2023-05-03T02:38:25;6.70;;;4.33;;
2602;SDS011;1311;47.966;7.958;2023-05-03T02:40:52;7.13;;;4.27;;
2602;SDS011;1311;47.966;7.958;2023-05-03T02:43:18;7.30;;;4.50;;
2602;SDS011;1311;47.966;7.958;2023-05-03T02:45:45;7.17;;;4.60;;
2602;SDS011;1311;47.966;7.958;2023-05-03T02:48:12;5.97;;;3.90;;
2602;SDS011;1311;47.966;7.958;2023-05-03T02:50:41;6.73;;;3.90;;
2602;SDS011;1311;47.966;7.958;2023-05-03T02:53:08;7.20;;;4.67;;
2602;SDS011;1311;47.966;7.958;2023-05-03T02:55:35;7.20;;;4.53;;
2602;SDS011;1311;47.966;7.958;2023-05-03T02:58:02;8.03;;;4.60;;
2602;SDS011;1311;47.966;7.958;2023-05-03T03:00:29;5.57;;;3.90;;
2602;SDS011;1311;47.966;7.958;2023-05-03T03:02:56;6.13;;;3.87;;
2602;SDS011;1311;47.966;7.958;2023-05-03T03:05:23;7.13;;;5.07;;
2602;SDS011;1311;47.966;7.958;2023-05-03T03:07:51;8.10;;;5.20;;
2602;SDS011;1311;47.966;7.958;2023-05-03T03:10:18;6.33;;;3.87;;
2602;SDS011;1311;47.966;7.958;2023-05-03T03:12:45;6.27;;;3.73;;
2602;SDS011;1311;47.966;7.958;2023-05-03T03:15:11;6.77;;;4.10;;
2602;SDS011;1311;47.966;7.958;2023-05-03T03:17:38;6.47;;;3.90;;
2602;SDS011;1311;47.966;7.958;2023-05-03T03:20:05;5.70;;;4.20;;
2602;SDS011;1311;47.966;7.958;2023-05-03T03:22:35;5.20;;;3.63;;
2602;SDS011;1311;47.966;7.958;2023-05-03T03:25:03;6.43;;;4.00;;
2602;SDS011;1311;47.966;7.958;2023-05-03T03:27:31;7.20;;;4.10;;
2602;SDS011;1311;47.966;7.958;2023-05-03T03:29:57;6.67;;;4.23;;
2602;SDS011;1311;47.966;7.958;2023-05-03T03:32:24;5.47;;;4.37;;
2602;SDS011;1311;47.966;7.958;2023-05-03T03:34:51;5.70;;;4.33;;
2602;SDS011;1311;47.966;7.958;2023-05-03T03:37:18;6.37;;;4.63;;
2602;SDS011;1311;47.966;7.958;2023-05-03T03:39:46;8.23;;;4.90;;
2602;SDS011;1311;47.966;7.958;2023-05-03T03:42:14;6.53;;;4.90;;
2602;SDS011;1311;47.966;7.958;2023-05-03T03:44:41;6.90;;;5.00;;
2602;SDS011;1311;47.966;7.958;2023-05-03T03:47:07;7.73;;;3.90;;
2602;SDS011;1311;47.966;7.958;2023-05-03T03:49:34;6.03;;;3.70;;
2602;SDS011;1311;47.966;7.958;2023-05-03T03:52:01;5.03;;;3.43;;
2602;SDS011;1311;47.966;7.958;2023-05-03T03:54:28;7.93;;;4.23;;
2602;SDS011;1311;47.966;7.958;2023-05-03T03:56:54;8.60;;;4.80;;
2602;SDS011;1311;47.966;7.958;2023-05-03T03:59:22;11.03;;;4.40;;
2602;SDS011;1311;47.966;7.958;2023-05-03T04:01:49;7.77;;;4.13;;
2602;SDS011;1311;47.966;7.958;2023-05-03T04:04:16;5.90;;;4.27;;
2602;SDS011;1311;47.966;7.958;2023-05-03T04:06:42;7.70;;;4.23;;
2602;SDS011;1311;47.966;7.958;2023-05-03T04:09:09;6.93;;;5.03;;
2602;SDS011;1311;47.966;7.958;2023-05-03T04:11:36;7.13;;;4.50;;
2602;SDS011;1311;47.966;7.958;2023-05-03T04:14:03;6.80;;;5.13;;
2602;SDS011;1311;47.966;7.958;2023-05-03T04:16:31;6.10;;;4.27;;
2602;SDS011;1311;47.966;7.958;2023-05-03T04:18:58;10.03;;;5.50;;
2602;SDS011;1311;47.966;7.958;2023-05-03T04:21:25;7.00;;;4.63;;
2602;SDS011;1311;47.966;7.958;2023-05-03T04:23:52;7.57;;;5.17;;
2602;SDS011;1311;47.966;7.958;2023-05-03T04:26:19;5.87;;;4.10;;
2602;SDS011;1311;47.966;7.958;2023-05-03T04:28:46;6.37;;;4.57;;
2602;SDS011;1311;47.966;7.958;2023-05-03T04:31:15;8.80;;;5.43;;
2602;SDS011;1311;47.966;7.958;2023-05-03T04:33:44;8.33;;;4.63;;
2602;SDS011;1311;47.966;7.958;2023-05-03T04:36:11;7.90;;;4.73;;
2602;SDS011;1311;47.966;7.958;2023-05-03T04:38:40;10.80;;;8.00;;
2602;SDS011;1311;47.966;7.958;2023-05-03T04:41:07;10.70;;;8.30;;
2602;SDS011;1311;47.966;7.958;2023-05-03T04:43:33;11.57;;;6.37;;
2602;SDS011;1311;47.966;7.958;2023-05-03T04:46:00;10.80;;;6.60;;
2602;SDS011;1311;47.966;7.958;2023-05-03T04:48:27;9.77;;;5.10;;
2602;SDS011;1311;47.966;7.958;2023-05-03T04:50:55;7.83;;;5.07;;
2602;SDS011;1311;47.966;7.958;2023-05-03T04:53:23;9.10;;;5.93;;
2602;SDS011;1311;47.966;7.958;2023-05-03T04:55:49;8.77;;;5.57;;
2602;SDS011;1311;47.966;7.958;2023-05-03T04:58:16;9.33;;;6.27;;
2602;SDS011;1311;47.966;7.958;2023-05-03T05:00:43;10.20;;;6.70;;
2602;SDS011;1311;47.966;7.958;2023-05-03T05:03:10;10.53;;;6.73;;
2602;SDS011;1311;47.966;7.958;2023-05-03T05:05:37;11.27;;;7.00;;
2602;SDS011;1311;47.966;7.958;2023-05-03T05:08:05;16.37;;;9.90;;
2602;SDS011;1311;47.966;7.958;2023-05-03T05:10:35;28.40;;;13.70;;
2602;SDS011;1311;47.966;7.958;2023-05-03T05:13:02;17.53;;;10.67;;
2602;SDS011;1311;47.966;7.958;2023-05-03T05:15:29;7.30;;;5.70;;
2602;SDS011;1311;47.966;7.958;2023-05-03T05:17:56;6.47;;;5.17;;
2602;SDS011;1311;47.966;7.958;2023-05-03T05:20:23;6.20;;;4.60;;
2602;SDS011;1311;47.966;7.958;2023-05-03T05:22:50;6.37;;;4.90;;
2602;SDS011;1311;47.966;7.958;2023-05-03T05:25:18;4.90;;;4.40;;
2602;SDS011;1311;47.966;7.958;2023-05-03T05:27:45;5.07;;;3.67;;
2602;SDS011;1311;47.966;7.958;2023-05-03T05:30:12;4.87;;;4.03;;
2602;SDS011;1311;47.966;7.958;2023-05-03T05:32:39;5.10;;;4.57;;
2602;SDS011;1311;47.966;7.958;2023-05-03T05:35:06;5.10;;;4.17;;
2602;SDS011;1311;47.966;7.958;2023-05-03T05:37:33;5.00;;;4.43;;
2602;SDS011;1311;47.966;7.958;2023-05-03T05:40:00;4.40;;;4.00;;
2602;SDS011;1311;47.966;7.958;2023-05-03T05:42:29;4.90;;;4.23;;
2602;SDS011;1311;47.966;7.958;2023-05-03T05:44:56;5.60;;;4.50;;
2602;SDS011;1311;47.966;7.958;2023-05-03T05:47:22;4.93;;;4.37;;
2602;SDS011;1311;47.966;7.958;2023-05-03T05:49:49;6.67;;;4.27;;
2602;SDS011;1311;47.966;7.958;2023-05-03T05:52:16;4.10;;;3.67;;
2602;SDS011;1311;47.966;7.958;2023-05-03T05:54:42;7.07;;;4.20;;
2602;SDS011;1311;47.966;7.958;2023-05-03T05:57:09;8.57;;;4.90;;
2602;SDS011;1311;47.966;7.958;2023-05-03T05:59:38;3.80;;;3.50;;
2602;SDS011;1311;47.966;7.958;2023-05-03T06:02:06;6.17;;;4.47;;
2602;SDS011;1311;47.966;7.958;2023-05-03T06:04:40;4.07;;;3.67;;
2602;SDS011;1311;47.966;7.958;2023-05-03T06:07:07;6.63;;;5.30;;
2602;SDS011;1311;47.966;7.958;2023-05-03T06:09:34;5.40;;;4.90;;
2602;SDS011;1311;47.966;7.958;2023-05-03T06:12:00;5.60;;;4.93;;
2602;SDS011;1311;47.966;7.958;2023-05-03T06:14:27;6.90;;;6.20;;
2602;SDS011;1311;47.966;7.958;2023-05-03T06:16:55;6.33;;;5.73;;
2602;SDS011;1311;47.966;7.958;2023-05-03T06:19:22;9.13;;;6.53;;
2602;SDS011;1311;47.966;7.958;2023-05-03T06:21:49;6.83;;;5.00;;
2602;SDS011;1311;47.966;7.958;2023-05-03T06:24:16;6.83;;;5.70;;
2602;SDS011;1311;47.966;7.958;2023-05-03T06:26:45;5.63;;;4.50;;
2602;SDS011;1311;47.966;7.958;2023-05-03T06:29:11;4.80;;;4.30;;
2602;SDS011;1311;47.966;7.958;2023-05-03T06:31:38;5.37;;;4.87;;
2602;SDS011;1311;47.966;7.958;2023-05-03T06:34:07;6.53;;;4.77;;
2602;SDS011;1311;47.966;7.958;2023-05-03T06:36:34;7.00;;;5.47;;
2602;SDS011;1311;47.966;7.958;2023-05-03T06:39:01;7.63;;;6.00;;
2602;SDS011;1311;47.966;7.958;2023-05-03T06:41:28;7.20;;;6.50;;
2602;SDS011;1311;47.966;7.958;2023-05-03T06:43:56;6.93;;;6.23;;
2602;SDS011;1311;47.966;7.958;2023-05-03T06:46:23;10.80;;;6.47;;
2602;SDS011;1311;47.966;7.958;2023-05-03T06:48:51;9.23;;;6.40;;
2602;SDS011;1311;47.966;7.958;2023-05-03T06:51:21;8.30;;;7.50;;
2602;SDS011;1311;47.966;7.958;2023-05-03T06:53:52;11.03;;;6.30;;
2602;SDS011;1311;47.966;7.958;2023-05-03T06:56:18;9.80;;;6.80;;
2602;SDS011;1311;47.966;7.958;2023-05-03T06:58:45;8.67;;;7.60;;
2602;SDS011;1311;47.966;7.958;2023-05-03T07:01:12;8.33;;;6.50;;
2602;SDS011;1311;47.966;7.958;2023-05-03T07:03:39;6.90;;;6.20;;
2602;SDS011;1311;47.966;7.958;2023-05-03T07:06:06;9.60;;;7.20;;
2602;SDS011;1311;47.966;7.958;2023-05-03T07:08:35;9.17;;;6.50;;
2602;SDS011;1311;47.966;7.958;2023-05-03T07:11:01;7.77;;;6.97;;
2602;SDS011;1311;47.966;7.958;2023-05-03T07:13:29;8.90;;;6.97;;
2602;SDS011;1311;47.966;7.958;2023-05-03T07:15:56;8.93;;;7.00;;
2602;SDS011;1311;47.966;7.958;2023-05-03T07:18:23;8.00;;;6.30;;
2602;SDS011;1311;47.966;7.958;2023-05-03T07:20:50;6.80;;;6.07;;
2602;SDS011;1311;47.966;7.958;2023-05-03T07:23:16;6.77;;;5.47;;
2602;SDS011;1311;47.966;7.958;2023-05-03T07:25:45;7.00;;;6.10;;
2602;SDS011;1311;47.966;7.958;2023-05-03T07:28:11;6.60;;;5.90;;
2602;SDS011;1311;47.966;7.958;2023-05-03T07:30:38;7.43;;;6.63;;
2602;SDS011;1311;47.966;7.958;2023-05-03T07:33:18;6.67;;;6.00;;
2602;SDS011;1311;47.966;7.958;2023-05-03T07:35:45;6.70;;;6.00;;
2602;SDS011;1311;47.966;7.958;2023-05-03T07:38:12;6.63;;;5.90;;
2602;SDS011;1311;47.966;7.958;2023-05-03T07:40:39;6.07;;;5.47;;
2602;SDS011;1311;47.966;7.958;2023-05-03T07:43:07;6.60;;;5.20;;
2602;SDS011;1311;47.966;7.958;2023-05-03T07:45:35;5.10;;;4.53;;
2602;SDS011;1311;47.966;7.958;2023-05-03T07:48:02;6.77;;;5.53;;
2602;SDS011;1311;47.966;7.958;2023-05-03T07:50:29;4.90;;;4.40;;
2602;SDS011;1311;47.966;7.958;2023-05-03T07:52:56;6.23;;;5.40;;
2602;SDS011;1311;47.966;7.958;2023-05-03T07:55:23;7.33;;;6.63;;
2602;SDS011;1311;47.966;7.958;2023-05-03T07:57:50;4.43;;;4.00;;
2602;SDS011;1311;47.966;7.958;2023-05-03T08:00:23;4.13;;;3.57;;
2602;SDS011;1311;47.966;7.958;2023-05-03T08:02:50;8.73;;;7.10;;
2602;SDS011;1311;47.966;7.958;2023-05-03T08:05:17;9.97;;;6.60;;
2602;SDS011;1311;47.966;7.958;2023-05-03T08:07:44;10.97;;;7.87;;
2602;SDS011;1311;47.966;7.958;2023-05-03T08:10:11;9.70;;;8.30;;
2602;SDS011;1311;47.966;7.958;2023-05-03T08:12:38;9.27;;;7.17;;
2602;SDS011;1311;47.966;7.958;2023-05-03T08:15:05;8.20;;;7.40;;
2602;SDS011;1311;47.966;7.958;2023-05-03T08:17:39;11.00;;;8.70;;
2602;SDS011;1311;47.966;7.958;2023-05-03T08:20:07;8.83;;;7.60;;
2602;SDS011;1311;47.966;7.958;2023-05-03T08:22:35;8.27;;;7.23;;
2602;SDS011;1311;47.966;7.958;2023-05-03T08:25:02;9.53;;;8.03;;
2602;SDS011;1311;47.966;7.958;2023-05-03T08:27:29;9.37;;;8.33;;
2602;SDS011;1311;47.966;7.958;2023-05-03T08:29:56;10.90;;;8.37;;
2602;SDS011;1311;47.966;7.958;2023-05-03T08:32:24;8.80;;;7.87;;
2602;SDS011;1311;47.966;7.958;2023-05-03T08:34:53;8.50;;;7.43;;
2602;SDS011;1311;47.966;7.958;2023-05-03T08:37:20;7.63;;;6.83;;
2602;SDS011;1311;47.966;7.958;2023-05-03T08:39:47;10.17;;;7.30;;
2602;SDS011;1311;47.966;7.958;2023-05-03T08:42:14;10.90;;;7.67;;
2602;SDS011;1311;47.966;7.958;2023-05-03T08:44:43;10.20;;;6.77;;
2602;SDS011;1311;47.966;7.958;2023-05-03T08:47:12;9.90;;;7.17;;
2602;SDS011;1311;47.966;7.958;2023-05-03T08:49:39;13.53;;;6.87;;
2602;SDS011;1311;47.966;7.958;2023-05-03T08:52:09;8.73;;;7.37;;
2602;SDS011;1311;47.966;7.958;2023-05-03T08:54:36;8.63;;;7.37;;
2602;SDS011;1311;47.966;7.958;2023-05-03T08:57:03;8.70;;;7.50;;
2602;SDS011;1311;47.966;7.958;2023-05-03T08:59:44;9.80;;;7.53;;
2602;SDS011;1311;47.966;7.958;2023-05-03T09:02:12;8.77;;;6.80;;
2602;SDS011;1311;47.966;7.958;2023-05-03T09:04:39;9.67;;;7.73;;
2602;SDS011;1311;47.966;7.958;2023-05-03T09:07:08;9.30;;;7.17;;
2602;SDS011;1311;47.966;7.958;2023-05-03T09:09:36;10.93;;;6.70;;
2602;SDS011;1311;47.966;7.958;2023-05-03T09:12:03;7.77;;;6.77;;
2602;SDS011;1311;47.966;7.958;2023-05-03T09:14:30;9.00;;;7.27;;
2602;SDS011;1311;47.966;7.958;2023-05-03T09:17:12;7.83;;;7.03;;
2602;SDS011;1311;47.966;7.958;2023-05-03T09:19:50;9.97;;;7.23;;
2602;SDS011;1311;47.966;7.958;2023-05-03T09:22:19;11.10;;;7.87;;
2602;SDS011;1311;47.966;7.958;2023-05-03T09:24:50;11.10;;;7.63;;
2602;SDS011;1311;47.966;7.958;2023-05-03T09:27:18;10.20;;;7.70;;
2602;SDS011;1311;47.966;7.958;2023-05-03T09:29:45;7.07;;;6.37;;
2602;SDS011;1311;47.966;7.958;2023-05-03T09:32:13;9.80;;;7.07;;
2602;SDS011;1311;47.966;7.958;2023-05-03T09:34:39;7.53;;;6.60;;
2602;SDS011;1311;47.966;7.958;2023-05-03T09:37:06;7.07;;;6.33;;
2602;SDS011;1311;47.966;7.958;2023-05-03T09:39:34;7.57;;;6.80;;
2602;SDS011;1311;47.966;7.958;2023-05-03T09:42:09;6.10;;;5.50;;
2602;SDS011;1311;47.966;7.958;2023-05-03T09:44:40;7.63;;;6.50;;
2602;SDS011;1311;47.966;7.958;2023-05-03T09:47:09;10.20;;;6.50;;
2602;SDS011;1311;47.966;7.958;2023-05-03T09:49:36;7.17;;;5.93;;
2602;SDS011;1311;47.966;7.958;2023-05-03T09:52:04;7.50;;;6.13;;
2602;SDS011;1311;47.966;7.958;2023-05-03T09:54:36;7.03;;;6.07;;
2602;SDS011;1311;47.966;7.958;2023-05-03T09:57:03;8.60;;;5.47;;
2602;SDS011;1311;47.966;7.958;2023-05-03T09:59:32;7.30;;;5.33;;
2602;SDS011;1311;47.966;7.958;2023-05-03T10:02:00;7.80;;;6.00;;
2602;SDS011;1311;47.966;7.958;2023-05-03T10:04:28;9.60;;;6.00;;
2602;SDS011;1311;47.966;7.958;2023-05-03T10:07:02;6.27;;;5.30;;
2602;SDS011;1311;47.966;7.958;2023-05-03T10:09:34;5.80;;;4.90;;
2602;SDS011;1311;47.966;7.958;2023-05-03T10:12:06;5.40;;;4.90;;
2602;SDS011;1311;47.966;7.958;2023-05-03T10:14:35;7.57;;;5.33;;
2602;SDS011;1311;47.966;7.958;2023-05-03T10:17:03;5.20;;;4.70;;
2602;SDS011;1311;47.966;7.958;2023-05-03T10:19:40;5.07;;;4.50;;
2602;SDS011;1311;47.966;7.958;2023-05-03T10:22:12;6.10;;;5.20;;
2602;SDS011;1311;47.966;7.958;2023-05-03T10:27:43;4.50;;;4.07;;
2602;SDS011;1311;47.966;7.958;2023-05-03T10:30:26;5.27;;;4.53;;
2602;SDS011;1311;47.966;7.958;2023-05-03T10:32:55;5.83;;;5.30;;
2602;SDS011;1311;47.966;7.958;2023-05-03T10:35:24;6.53;;;4.97;;
2602;SDS011;1311;47.966;7.958;2023-05-03T10:37:52;5.20;;;4.70;;
2602;SDS011;1311;47.966;7.958;2023-05-03T10:40:22;3.87;;;3.47;;
2602;SDS011;1311;47.966;7.958;2023-05-03T10:42:49;4.50;;;2.60;;
2602;SDS011;1311;47.966;7.958;2023-05-03T10:45:19;2.80;;;2.60;;
2602;SDS011;1311;47.966;7.958;2023-05-03T10:50:45;2.70;;;2.37;;
2602;SDS011;1311;47.966;7.958;2023-05-03T10:56:02;3.30;;;3.00;;
2602;SDS011;1311;47.966;7.958;2023-05-03T10:58:33;3.10;;;2.90;;
2602;SDS011;1311;47.966;7.958;2023-05-03T11:01:03;3.23;;;2.93;;
2602;SDS011;1311;47.966;7.958;2023-05-03T11:03:37;2.97;;;2.67;;
2602;SDS011;1311;47.966;7.958;2023-05-03T11:06:29;2.30;;;2.10;;
2602;SDS011;1311;47.966;7.958;2023-05-03T11:08:58;2.70;;;2.50;;
2602;SDS011;1311;47.966;7.958;2023-05-03T11:11:26;2.80;;;2.50;;
2602;SDS011;1311;47.966;7.958;2023-05-03T11:13:53;2.60;;;2.40;;
2602;SDS011;1311;47.966;7.958;2023-05-03T11:16:20;3.87;;;2.03;;
2602;SDS011;1311;47.966;7.958;2023-05-03T11:18:47;2.70;;;2.33;;
2602;SDS011;1311;47.966;7.958;2023-05-03T11:21:14;2.50;;;2.30;;
2602;SDS011;1311;47.966;7.958;2023-05-03T11:23:41;2.73;;;2.30;;
2602;SDS011;1311;47.966;7.958;2023-05-03T11:26:08;3.20;;;2.73;;
2602;SDS011;1311;47.966;7.958;2023-05-03T11:28:37;3.00;;;2.00;;
2602;SDS011;1311;47.966;7.958;2023-05-03T11:31:05;2.50;;;2.30;;
2602;SDS011;1311;47.966;7.958;2023-05-03T11:33:32;2.73;;;2.37;;
2602;SDS011;1311;47.966;7.958;2023-05-03T11:36:00;3.10;;;2.40;;
2602;SDS011;1311;47.966;7.958;2023-05-03T11:38:28;2.60;;;2.40;;
2602;SDS011;1311;47.966;7.958;2023-05-03T11:40:56;2.43;;;2.23;;
2602;SDS011;1311;47.966;7.958;2023-05-03T11:43:22;2.63;;;2.43;;
2602;SDS011;1311;47.966;7.958;2023-05-03T11:45:52;3.03;;;2.57;;
2602;SDS011;1311;47.966;7.958;2023-05-03T11:48:22;2.67;;;2.47;;
2602;SDS011;1311;47.966;7.958;2023-05-03T11:50:51;2.77;;;2.57;;
2602;SDS011;1311;47.966;7.958;2023-05-03T11:53:20;4.77;;;2.63;;
2602;SDS011;1311;47.966;7.958;2023-05-03T11:55:48;2.67;;;2.47;;
2602;SDS011;1311;47.966;7.958;2023-05-03T11:58:17;2.30;;;2.10;;
2602;SDS011;1311;47.966;7.958;2023-05-03T12:00:47;2.70;;;2.50;;
2602;SDS011;1311;47.966;7.958;2023-05-03T12:03:16;3.00;;;2.47;;
2602;SDS011;1311;47.966;7.958;2023-05-03T12:05:44;2.70;;;2.50;;
2602;SDS011;1311;47.966;7.958;2023-05-03T12:08:11;2.70;;;2.50;;
2602;SDS011;1311;47.966;7.958;2023-05-03T12:10:39;3.07;;;2.50;;
2602;SDS011;1311;47.966;7.958;2023-05-03T12:13:07;2.77;;;2.57;;
2602;SDS011;1311;47.966;7.958;2023-05-03T12:15:35;3.10;;;2.80;;
2602;SDS011;1311;47.966;7.958;2023-05-03T12:18:03;3.93;;;2.70;;
2602;SDS011;1311;47.966;7.958;2023-05-03T12:20:33;2.60;;;2.40;;
2602;SDS011;1311;47.966;7.958;2023-05-03T12:23:01;2.50;;;2.30;;
2602;SDS011;1311;47.966;7.958;2023-05-03T12:25:29;2.97;;;2.70;;
2602;SDS011;1311;47.966;7.958;2023-05-03T12:27:57;2.67;;;2.47;;
2602;SDS011;1311;47.966;7.958;2023-05-03T12:30:26;3.30;;;2.70;;
2602;SDS011;1311;47.966;7.958;2023-05-03T12:32:54;3.10;;;2.80;;
2602;SDS011;1311;47.966;7.958;2023-05-03T12:35:21;3.07;;;2.87;;
2602;SDS011;1311;47.966;7.958;2023-05-03T12:37:49;8.03;;;3.23;;
2602;SDS011;1311;47.966;7.958;2023-05-03T12:40:16;3.30;;;3.00;;
2602;SDS011;1311;47.966;7.958;2023-05-03T12:42:44;3.10;;;2.90;;
2602;SDS011;1311;47.966;7.958;2023-05-03T12:45:11;3.33;;;2.70;;
2602;SDS011;1311;47.966;7.958;2023-05-03T12:47:38;3.70;;;3.00;;
2602;SDS011;1311;47.966;7.958;2023-05-03T12:50:06;2.63;;;2.43;;
2602;SDS011;1311;47.966;7.958;2023-05-03T12:52:35;3.20;;;2.90;;
2602;SDS011;1311;47.966;7.958;2023-05-03T12:55:03;3.10;;;2.53;;
2602;SDS011;1311;47.966;7.958;2023-05-03T12:57:31;4.13;;;2.77;;
2602;SDS011;1311;47.966;7.958;2023-05-03T12:59:58;3.20;;;2.83;;
2602;SDS011;1311;47.966;7.958;2023-05-03T13:02:25;2.40;;;2.20;;
2602;SDS011;1311;47.966;7.958;2023-05-03T13:04:51;3.23;;;2.80;;
2602;SDS011;1311;47.966;7.958;2023-05-03T13:07:20;3.17;;;2.87;;
2602;SDS011;1311;47.966;7.958;2023-05-03T13:09:48;3.33;;;3.10;;
2602;SDS011;1311;47.966;7.958;2023-05-03T13:12:17;3.07;;;2.77;;
2602;SDS011;1311;47.966;7.958;2023-05-03T13:14:46;3.07;;;2.77;;
2602;SDS011;1311;47.966;7.958;2023-05-03T13:17:13;3.03;;;2.73;;
2602;SDS011;1311;47.966;7.958;2023-05-03T13:19:41;3.33;;;2.80;;
2602;SDS011;1311;47.966;7.958;2023-05-03T13:22:08;2.90;;;2.70;;
2602;SDS011;1311;47.966;7.958;2023-05-03T13:24:35;3.00;;;2.67;;
2602;SDS011;1311;47.966;7.958;2023-05-03T13:27:02;2.77;;;2.57;;
2602;SDS011;1311;47.966;7.958;2023-05-03T13:29:30;3.07;;;2.70;;
2602;SDS011;1311;47.966;7.958;2023-05-03T13:31:57;3.27;;;2.97;;
2602;SDS011;1311;47.966;7.958;2023-05-03T13:34:24;2.93;;;2.73;;
2602;SDS011;1311;47.966;7.958;2023-05-03T13:36:51;4.20;;;2.97;;
2602;SDS011;1311;47.966;7.958;2023-05-03T13:39:18;3.00;;;2.80;;
2602;SDS011;1311;47.966;7.958;2023-05-03T13:41:45;2.93;;;2.73;;
2602;SDS011;1311;47.966;7.958;2023-05-03T13:44:12;5.30;;;3.57;;
2602;SDS011;1311;47.966;7.958;2023-05-03T13:46:40;5.80;;;3.50;;
2602;SDS011;1311;47.966;7.958;2023-05-03T13:49:07;3.50;;;2.83;;
2602;SDS011;1311;47.966;7.958;2023-05-03T13:51:34;3.23;;;2.93;;
2602;SDS011;1311;47.966;7.958;2023-05-03T13:54:03;3.10;;;2.80;;
2602;SDS011;1311;47.966;7.958;2023-05-03T13:56:30;3.00;;;2.80;;
2602;SDS011;1311;47.966;7.958;2023-05-03T13:58:57;3.10;;;2.83;;
2602;SDS011;1311;47.966;7.958;2023-05-03T14:01:24;3.60;;;2.60;;
2602;SDS011;1311;47.966;7.958;2023-05-03T14:03:54;4.03;;;2.93;;
2602;SDS011;1311;47.966;7.958;2023-05-03T14:06:20;3.43;;;3.13;;
2602;SDS011;1311;47.966;7.958;2023-05-03T14:08:48;2.83;;;2.63;;
2602;SDS011;1311;47.966;7.958;2023-05-03T14:11:15;3.87;;;3.07;;
2602;SDS011;1311;47.966;7.958;2023-05-03T14:13:43;2.90;;;2.70;;
2602;SDS011;1311;47.966;7.958;2023-05-03T14:16:14;2.90;;;2.70;;
2602;SDS011;1311;47.966;7.958;2023-05-03T14:18:41;3.40;;;3.10;;
2602;SDS011;1311;47.966;7.958;2023-05-03T14:21:09;3.37;;;2.80;;
2602;SDS011;1311;47.966;7.958;2023-05-03T14:23:37;2.80;;;2.60;;
2602;SDS011;1311;47.966;7.958;2023-05-03T14:26:04;2.67;;;2.47;;
2602;SDS011;1311;47.966;7.958;2023-05-03T14:28:31;2.67;;;2.13;;
2602;SDS011;1311;47.966;7.958;2023-05-03T14:30:58;3.30;;;2.73;;
2602;SDS011;1311;47.966;7.958;2023-05-03T14:33:25;3.13;;;2.77;;
2602;SDS011;1311;47.966;7.958;2023-05-03T14:35:52;3.30;;;3.10;;
2602;SDS011;1311;47.966;7.958;2023-05-03T14:38:20;3.40;;;3.10;;
2602;SDS011;1311;47.966;7.958;2023-05-03T14:40:47;3.37;;;3.07;;
2602;SDS011;1311;47.966;7.958;2023-05-03T14:43:14;3.10;;;2.80;;
2602;SDS011;1311;47.966;7.958;2023-05-03T14:45:41;3.00;;;2.80;;
2602;SDS011;1311;47.966;7.958;2023-05-03T14:48:09;2.80;;;2.60;;
2602;SDS011;1311;47.966;7.958;2023-05-03T14:50:36;3.20;;;3.00;;
2602;SDS011;1311;47.966;7.958;2023-05-03T14:53:02;3.20;;;2.77;;
2602;SDS011;1311;47.966;7.958;2023-05-03T14:55:31;2.83;;;2.60;;
2602;SDS011;1311;47.966;7.958;2023-05-03T14:57:58;2.80;;;2.60;;
2602;SDS011;1311;47.966;7.958;2023-05-03T15:00:25;3.13;;;2.83;;
2602;SDS011;1311;47.966;7.958;2023-05-03T15:02:52;3.30;;;3.00;;
2602;SDS011;1311;47.966;7.958;2023-05-03T15:05:19;4.80;;;2.90;;
2602;SDS011;1311;47.966;7.958;2023-05-03T15:07:47;3.23;;;2.57;;
2602;SDS011;1311;47.966;7.958;2023-05-03T15:10:13;2.90;;;2.70;;
2602;SDS011;1311;47.966;7.958;2023-05-03T15:12:41;2.10;;;1.90;;
2602;SDS011;1311;47.966;7.958;2023-05-03T15:15:09;2.60;;;2.40;;
2602;SDS011;1311;47.966;7.958;2023-05-03T15:17:36;2.90;;;2.60;;
2602;SDS011;1311;47.966;7.958;2023-05-03T15:20:03;3.70;;;3.00;;
2602;SDS011;1311;47.966;7.958;2023-05-03T15:22:31;3.47;;;2.93;;
2602;SDS011;1311;47.966;7.958;2023-05-03T15:24:57;2.97;;;2.40;;
2602;SDS011;1311;47.966;7.958;2023-05-03T15:27:24;2.77;;;2.57;;
2602;SDS011;1311;47.966;7.958;2023-05-03T15:29:52;3.00;;;2.80;;